sensor_id;sensor_type;location;lat;lon;timestamp;P1;durP1;ratioP1;P2;durP2;ratioP2
19985;SDS011;10154;52.474;10.768;2022-10-31T00:02:16;16.07;;;5.67;;
19985;SDS011;10154;52.474;10.768;2022-10-31T00:04:41;14.33;;;4.93;;
19985;SDS011;10154;52.474;10.768;2022-10-31T00:07:07;12.63;;;5.20;;
19985;SDS011;10154;52.474;10.768;2022-10-31T00:09:32;20.63;;;5.77;;
19985;SDS011;10154;52.474;10.768;2022-10-31T00:11:57;13.17;;;5.27;;
19985;SDS011;10154;52.474;10.768;2022-10-31T00:14:23;16.93;;;5.10;;
19985;SDS011;10154;52.474;10.768;2022-10-31T00:16:48;11.43;;;5.00;;
19985;SDS011;10154;52.474;10.768;2022-10-31T00:19:13;15.37;;;5.00;;
19985;SDS011;10154;52.474;10.768;2022-10-31T00:21:39;15.80;;;5.27;;
19985;SDS011;10154;52.474;10.768;2022-10-31T00:24:04;15.00;;;5.23;;
19985;SDS011;10154;52.474;10.768;2022-10-31T00:26:30;18.33;;;5.13;;
19985;SDS011;10154;52.474;10.768;2022-10-31T00:28:56;11.13;;;4.80;;
19985;SDS011;10154;52.474;10.768;2022-10-31T00:31:22;23.00;;;4.90;;
19985;SDS011;10154;52.474;10.768;2022-10-31T00:33:48;16.67;;;5.20;;
19985;SDS011;10154;52.474;10.768;2022-10-31T00:36:14;15.27;;;5.37;;
19985;SDS011;10154;52.474;10.768;2022-10-31T00:38:41;18.90;;;5.27;;
19985;SDS011;10154;52.474;10.768;2022-10-31T00:41:07;17.70;;;5.93;;
19985;SDS011;10154;52.474;10.768;2022-10-31T00:43:32;15.50;;;5.27;;
19985;SDS011;10154;52.474;10.768;2022-10-31T00:45:57;13.43;;;5.03;;
19985;SDS011;10154;52.474;10.768;2022-10-31T00:48:22;15.27;;;5.20;;
19985;SDS011;10154;52.474;10.768;2022-10-31T00:50:48;20.17;;;5.23;;
19985;SDS011;10154;52.474;10.768;2022-10-31T00:53:13;14.07;;;5.00;;
19985;SDS011;10154;52.474;10.768;2022-10-31T00:55:39;12.07;;;4.63;;
19985;SDS011;10154;52.474;10.768;2022-10-31T00:58:04;17.20;;;5.50;;
19985;SDS011;10154;52.474;10.768;2022-10-31T01:00:29;13.87;;;4.77;;
19985;SDS011;10154;52.474;10.768;2022-10-31T01:02:55;19.60;;;5.63;;
19985;SDS011;10154;52.474;10.768;2022-10-31T01:05:20;11.97;;;5.07;;
19985;SDS011;10154;52.474;10.768;2022-10-31T01:07:46;21.10;;;5.23;;
19985;SDS011;10154;52.474;10.768;2022-10-31T01:10:11;16.90;;;5.20;;
19985;SDS011;10154;52.474;10.768;2022-10-31T01:12:37;14.67;;;5.07;;
19985;SDS011;10154;52.474;10.768;2022-10-31T01:15:04;12.63;;;5.20;;
19985;SDS011;10154;52.474;10.768;2022-10-31T01:17:30;17.87;;;5.50;;
19985;SDS011;10154;52.474;10.768;2022-10-31T01:19:55;17.87;;;5.70;;
19985;SDS011;10154;52.474;10.768;2022-10-31T01:22:21;14.40;;;5.30;;
19985;SDS011;10154;52.474;10.768;2022-10-31T01:24:46;17.73;;;5.40;;
19985;SDS011;10154;52.474;10.768;2022-10-31T01:27:11;16.23;;;5.27;;
19985;SDS011;10154;52.474;10.768;2022-10-31T01:29:37;19.23;;;6.50;;
19985;SDS011;10154;52.474;10.768;2022-10-31T01:32:02;13.80;;;5.10;;
19985;SDS011;10154;52.474;10.768;2022-10-31T01:34:27;13.70;;;5.00;;
19985;SDS011;10154;52.474;10.768;2022-10-31T01:36:53;14.80;;;4.97;;
19985;SDS011;10154;52.474;10.768;2022-10-31T01:39:18;17.03;;;5.90;;
19985;SDS011;10154;52.474;10.768;2022-10-31T01:41:45;14.23;;;5.80;;
19985;SDS011;10154;52.474;10.768;2022-10-31T01:46:40;10.73;;;5.67;;
19985;SDS011;10154;52.474;10.768;2022-10-31T01:49:11;16.73;;;5.43;;
19985;SDS011;10154;52.474;10.768;2022-10-31T01:51:41;20.47;;;5.67;;
19985;SDS011;10154;52.474;10.768;2022-10-31T01:54:12;13.60;;;5.67;;
19985;SDS011;10154;52.474;10.768;2022-10-31T01:56:41;14.57;;;5.40;;
19985;SDS011;10154;52.474;10.768;2022-10-31T01:59:08;18.30;;;5.33;;
19985;SDS011;10154;52.474;10.768;2022-10-31T02:01:35;12.07;;;5.27;;
19985;SDS011;10154;52.474;10.768;2022-10-31T02:04:02;14.33;;;5.33;;
19985;SDS011;10154;52.474;10.768;2022-10-31T02:06:44;26.43;;;6.27;;
19985;SDS011;10154;52.474;10.768;2022-10-31T02:09:13;23.33;;;6.57;;
19985;SDS011;10154;52.474;10.768;2022-10-31T02:11:39;14.20;;;5.90;;
19985;SDS011;10154;52.474;10.768;2022-10-31T02:14:05;16.20;;;6.40;;
19985;SDS011;10154;52.474;10.768;2022-10-31T02:16:31;17.30;;;5.90;;
19985;SDS011;10154;52.474;10.768;2022-10-31T02:18:56;17.70;;;6.40;;
19985;SDS011;10154;52.474;10.768;2022-10-31T02:29:43;17.47;;;5.73;;
19985;SDS011;10154;52.474;10.768;2022-10-31T02:32:21;13.87;;;6.13;;
19985;SDS011;10154;52.474;10.768;2022-10-31T02:38:29;15.93;;;5.83;;
19985;SDS011;10154;52.474;10.768;2022-10-31T02:43:31;16.87;;;6.60;;
19985;SDS011;10154;52.474;10.768;2022-10-31T02:46:23;16.83;;;6.83;;
19985;SDS011;10154;52.474;10.768;2022-10-31T02:48:52;19.90;;;6.60;;
19985;SDS011;10154;52.474;10.768;2022-10-31T02:51:20;16.17;;;6.80;;
19985;SDS011;10154;52.474;10.768;2022-10-31T02:53:46;17.23;;;6.73;;
19985;SDS011;10154;52.474;10.768;2022-10-31T02:56:16;16.57;;;6.27;;
19985;SDS011;10154;52.474;10.768;2022-10-31T02:58:44;16.10;;;7.23;;
19985;SDS011;10154;52.474;10.768;2022-10-31T03:12:10;29.73;;;8.30;;
19985;SDS011;10154;52.474;10.768;2022-10-31T03:14:45;21.93;;;9.30;;
19985;SDS011;10154;52.474;10.768;2022-10-31T03:17:18;23.77;;;9.47;;
19985;SDS011;10154;52.474;10.768;2022-10-31T03:19:58;28.93;;;10.20;;
19985;SDS011;10154;52.474;10.768;2022-10-31T03:22:26;25.10;;;9.87;;
19985;SDS011;10154;52.474;10.768;2022-10-31T03:24:53;25.97;;;10.37;;
19985;SDS011;10154;52.474;10.768;2022-10-31T03:27:26;24.63;;;10.17;;
19985;SDS011;10154;52.474;10.768;2022-10-31T03:29:54;26.07;;;11.03;;
19985;SDS011;10154;52.474;10.768;2022-10-31T03:32:22;25.33;;;9.90;;
19985;SDS011;10154;52.474;10.768;2022-10-31T03:34:51;25.20;;;9.97;;
19985;SDS011;10154;52.474;10.768;2022-10-31T03:37:19;25.63;;;9.90;;
19985;SDS011;10154;52.474;10.768;2022-10-31T03:39:46;34.93;;;12.40;;
19985;SDS011;10154;52.474;10.768;2022-10-31T03:42:23;28.80;;;11.70;;
19985;SDS011;10154;52.474;10.768;2022-10-31T03:45:00;29.33;;;11.77;;
19985;SDS011;10154;52.474;10.768;2022-10-31T03:47:46;33.43;;;12.27;;
19985;SDS011;10154;52.474;10.768;2022-10-31T03:50:12;32.37;;;12.50;;
19985;SDS011;10154;52.474;10.768;2022-10-31T03:55:16;37.27;;;13.43;;
19985;SDS011;10154;52.474;10.768;2022-10-31T03:57:49;34.53;;;12.47;;
19985;SDS011;10154;52.474;10.768;2022-10-31T04:00:17;29.97;;;13.17;;
19985;SDS011;10154;52.474;10.768;2022-10-31T04:02:46;38.30;;;15.30;;
19985;SDS011;10154;52.474;10.768;2022-10-31T04:05:17;42.77;;;15.77;;
19985;SDS011;10154;52.474;10.768;2022-10-31T04:07:43;38.80;;;15.80;;
19985;SDS011;10154;52.474;10.768;2022-10-31T04:10:11;51.63;;;18.00;;
19985;SDS011;10154;52.474;10.768;2022-10-31T04:12:38;56.70;;;19.37;;
19985;SDS011;10154;52.474;10.768;2022-10-31T04:15:05;58.80;;;21.00;;
19985;SDS011;10154;52.474;10.768;2022-10-31T04:17:32;64.23;;;22.63;;
19985;SDS011;10154;52.474;10.768;2022-10-31T04:20:00;63.27;;;22.83;;
19985;SDS011;10154;52.474;10.768;2022-10-31T04:22:26;69.97;;;26.43;;
19985;SDS011;10154;52.474;10.768;2022-10-31T04:24:51;86.97;;;28.23;;
19985;SDS011;10154;52.474;10.768;2022-10-31T04:27:16;93.07;;;30.27;;
19985;SDS011;10154;52.474;10.768;2022-10-31T04:29:42;85.10;;;28.43;;
19985;SDS011;10154;52.474;10.768;2022-10-31T04:32:07;95.80;;;31.33;;
19985;SDS011;10154;52.474;10.768;2022-10-31T04:34:32;89.90;;;29.97;;
19985;SDS011;10154;52.474;10.768;2022-10-31T04:36:58;99.43;;;31.30;;
19985;SDS011;10154;52.474;10.768;2022-10-31T04:39:23;82.87;;;30.50;;
19985;SDS011;10154;52.474;10.768;2022-10-31T04:41:48;91.20;;;30.40;;
19985;SDS011;10154;52.474;10.768;2022-10-31T04:44:14;97.07;;;32.33;;
19985;SDS011;10154;52.474;10.768;2022-10-31T04:46:39;97.47;;;31.80;;
19985;SDS011;10154;52.474;10.768;2022-10-31T04:49:05;99.33;;;33.13;;
19985;SDS011;10154;52.474;10.768;2022-10-31T04:51:30;96.63;;;30.33;;
19985;SDS011;10154;52.474;10.768;2022-10-31T04:53:56;94.07;;;31.50;;
19985;SDS011;10154;52.474;10.768;2022-10-31T04:56:21;101.77;;;32.30;;
19985;SDS011;10154;52.474;10.768;2022-10-31T04:58:46;100.93;;;31.27;;
19985;SDS011;10154;52.474;10.768;2022-10-31T05:01:12;104.27;;;33.47;;
19985;SDS011;10154;52.474;10.768;2022-10-31T05:03:37;104.40;;;32.27;;
19985;SDS011;10154;52.474;10.768;2022-10-31T05:06:04;123.30;;;34.97;;
19985;SDS011;10154;52.474;10.768;2022-10-31T05:08:30;105.67;;;34.27;;
19985;SDS011;10154;52.474;10.768;2022-10-31T05:10:58;97.10;;;32.90;;
19985;SDS011;10154;52.474;10.768;2022-10-31T05:13:24;107.17;;;34.90;;
19985;SDS011;10154;52.474;10.768;2022-10-31T05:15:50;119.73;;;36.40;;
19985;SDS011;10154;52.474;10.768;2022-10-31T05:18:18;110.00;;;33.97;;
19985;SDS011;10154;52.474;10.768;2022-10-31T05:20:43;103.03;;;34.10;;
19985;SDS011;10154;52.474;10.768;2022-10-31T05:23:08;113.20;;;35.17;;
19985;SDS011;10154;52.474;10.768;2022-10-31T05:25:34;91.10;;;31.37;;
19985;SDS011;10154;52.474;10.768;2022-10-31T05:27:59;86.90;;;30.40;;
19985;SDS011;10154;52.474;10.768;2022-10-31T05:30:26;105.23;;;33.83;;
19985;SDS011;10154;52.474;10.768;2022-10-31T05:32:53;97.47;;;31.37;;
19985;SDS011;10154;52.474;10.768;2022-10-31T05:35:21;93.17;;;30.17;;
19985;SDS011;10154;52.474;10.768;2022-10-31T05:37:51;115.03;;;33.10;;
19985;SDS011;10154;52.474;10.768;2022-10-31T05:40:17;88.17;;;28.17;;
19985;SDS011;10154;52.474;10.768;2022-10-31T05:42:43;81.43;;;28.27;;
19985;SDS011;10154;52.474;10.768;2022-10-31T05:45:10;79.80;;;28.07;;
19985;SDS011;10154;52.474;10.768;2022-10-31T05:47:37;88.03;;;28.20;;
19985;SDS011;10154;52.474;10.768;2022-10-31T05:50:03;89.67;;;29.10;;
19985;SDS011;10154;52.474;10.768;2022-10-31T05:52:29;80.13;;;26.37;;
19985;SDS011;10154;52.474;10.768;2022-10-31T05:54:54;70.07;;;26.40;;
19985;SDS011;10154;52.474;10.768;2022-10-31T05:57:19;81.00;;;28.37;;
19985;SDS011;10154;52.474;10.768;2022-10-31T05:59:45;80.33;;;27.90;;
19985;SDS011;10154;52.474;10.768;2022-10-31T06:02:10;70.30;;;27.70;;
19985;SDS011;10154;52.474;10.768;2022-10-31T06:04:35;73.07;;;26.83;;
19985;SDS011;10154;52.474;10.768;2022-10-31T06:07:01;68.83;;;25.43;;
19985;SDS011;10154;52.474;10.768;2022-10-31T06:09:26;77.37;;;28.27;;
19985;SDS011;10154;52.474;10.768;2022-10-31T06:11:51;71.33;;;26.33;;
19985;SDS011;10154;52.474;10.768;2022-10-31T06:14:17;75.87;;;27.47;;
19985;SDS011;10154;52.474;10.768;2022-10-31T06:16:42;78.50;;;28.17;;
19985;SDS011;10154;52.474;10.768;2022-10-31T06:19:07;65.17;;;26.87;;
19985;SDS011;10154;52.474;10.768;2022-10-31T06:21:33;75.80;;;28.00;;
19985;SDS011;10154;52.474;10.768;2022-10-31T06:23:58;76.57;;;28.00;;
19985;SDS011;10154;52.474;10.768;2022-10-31T06:26:23;72.30;;;27.80;;
19985;SDS011;10154;52.474;10.768;2022-10-31T06:28:49;70.57;;;26.17;;
19985;SDS011;10154;52.474;10.768;2022-10-31T06:31:14;69.20;;;26.73;;
19985;SDS011;10154;52.474;10.768;2022-10-31T06:33:43;75.80;;;27.47;;
19985;SDS011;10154;52.474;10.768;2022-10-31T06:36:09;73.73;;;27.20;;
19985;SDS011;10154;52.474;10.768;2022-10-31T06:38:35;74.63;;;28.27;;
19985;SDS011;10154;52.474;10.768;2022-10-31T06:41:03;74.13;;;27.70;;
19985;SDS011;10154;52.474;10.768;2022-10-31T06:43:29;75.87;;;27.47;;
19985;SDS011;10154;52.474;10.768;2022-10-31T06:45:55;71.33;;;27.43;;
19985;SDS011;10154;52.474;10.768;2022-10-31T06:48:20;68.53;;;27.97;;
19985;SDS011;10154;52.474;10.768;2022-10-31T06:50:46;73.07;;;28.67;;
19985;SDS011;10154;52.474;10.768;2022-10-31T06:53:11;71.93;;;28.33;;
19985;SDS011;10154;52.474;10.768;2022-10-31T06:55:38;65.67;;;25.97;;
19985;SDS011;10154;52.474;10.768;2022-10-31T06:58:03;58.20;;;25.63;;
19985;SDS011;10154;52.474;10.768;2022-10-31T07:00:29;63.97;;;26.80;;
19985;SDS011;10154;52.474;10.768;2022-10-31T07:02:55;56.87;;;24.03;;
19985;SDS011;10154;52.474;10.768;2022-10-31T07:05:22;66.83;;;27.77;;
19985;SDS011;10154;52.474;10.768;2022-10-31T07:07:47;64.77;;;26.73;;
19985;SDS011;10154;52.474;10.768;2022-10-31T07:10:17;65.63;;;25.03;;
19985;SDS011;10154;52.474;10.768;2022-10-31T07:12:42;65.20;;;26.13;;
19985;SDS011;10154;52.474;10.768;2022-10-31T07:15:07;62.97;;;25.10;;
19985;SDS011;10154;52.474;10.768;2022-10-31T07:17:33;71.77;;;28.07;;
19985;SDS011;10154;52.474;10.768;2022-10-31T07:19:58;65.07;;;26.57;;
19985;SDS011;10154;52.474;10.768;2022-10-31T07:22:24;56.23;;;24.53;;
19985;SDS011;10154;52.474;10.768;2022-10-31T07:24:49;64.07;;;26.93;;
19985;SDS011;10154;52.474;10.768;2022-10-31T07:27:14;54.30;;;24.87;;
19985;SDS011;10154;52.474;10.768;2022-10-31T07:29:40;61.40;;;24.90;;
19985;SDS011;10154;52.474;10.768;2022-10-31T07:32:05;59.60;;;25.20;;
19985;SDS011;10154;52.474;10.768;2022-10-31T07:34:30;68.50;;;27.37;;
19985;SDS011;10154;52.474;10.768;2022-10-31T07:36:56;71.43;;;29.87;;
19985;SDS011;10154;52.474;10.768;2022-10-31T07:39:21;72.77;;;29.20;;
19985;SDS011;10154;52.474;10.768;2022-10-31T07:41:47;68.03;;;27.60;;
19985;SDS011;10154;52.474;10.768;2022-10-31T07:44:12;71.43;;;28.63;;
19985;SDS011;10154;52.474;10.768;2022-10-31T07:46:38;63.23;;;26.50;;
19985;SDS011;10154;52.474;10.768;2022-10-31T07:49:03;70.50;;;28.60;;
19985;SDS011;10154;52.474;10.768;2022-10-31T07:51:28;69.43;;;28.83;;
19985;SDS011;10154;52.474;10.768;2022-10-31T07:53:57;68.17;;;27.67;;
19985;SDS011;10154;52.474;10.768;2022-10-31T07:56:26;63.97;;;27.13;;
19985;SDS011;10154;52.474;10.768;2022-10-31T07:58:51;62.30;;;26.97;;
19985;SDS011;10154;52.474;10.768;2022-10-31T08:01:16;62.30;;;25.70;;
19985;SDS011;10154;52.474;10.768;2022-10-31T08:03:42;64.60;;;27.13;;
19985;SDS011;10154;52.474;10.768;2022-10-31T08:06:07;66.03;;;28.10;;
19985;SDS011;10154;52.474;10.768;2022-10-31T08:08:32;68.53;;;28.33;;
19985;SDS011;10154;52.474;10.768;2022-10-31T08:10:58;54.13;;;22.30;;
19985;SDS011;10154;52.474;10.768;2022-10-31T08:13:23;50.17;;;20.53;;
19985;SDS011;10154;52.474;10.768;2022-10-31T08:15:49;51.67;;;23.27;;
19985;SDS011;10154;52.474;10.768;2022-10-31T08:18:16;49.23;;;22.50;;
19985;SDS011;10154;52.474;10.768;2022-10-31T08:20:42;50.03;;;21.87;;
19985;SDS011;10154;52.474;10.768;2022-10-31T08:23:08;53.07;;;23.13;;
19985;SDS011;10154;52.474;10.768;2022-10-31T08:25:35;46.53;;;20.60;;
19985;SDS011;10154;52.474;10.768;2022-10-31T08:28:00;45.63;;;19.67;;
19985;SDS011;10154;52.474;10.768;2022-10-31T08:30:27;53.33;;;22.83;;
19985;SDS011;10154;52.474;10.768;2022-10-31T08:33:04;50.67;;;23.23;;
19985;SDS011;10154;52.474;10.768;2022-10-31T08:35:31;42.37;;;20.27;;
19985;SDS011;10154;52.474;10.768;2022-10-31T08:37:57;49.93;;;22.07;;
19985;SDS011;10154;52.474;10.768;2022-10-31T08:40:24;51.47;;;21.90;;
19985;SDS011;10154;52.474;10.768;2022-10-31T08:42:59;60.73;;;25.97;;
19985;SDS011;10154;52.474;10.768;2022-10-31T08:45:34;56.40;;;23.23;;
19985;SDS011;10154;52.474;10.768;2022-10-31T08:48:00;48.23;;;21.50;;
19985;SDS011;10154;52.474;10.768;2022-10-31T08:50:27;60.30;;;24.60;;
19985;SDS011;10154;52.474;10.768;2022-10-31T08:52:53;67.03;;;25.83;;
19985;SDS011;10154;52.474;10.768;2022-10-31T08:55:18;49.20;;;21.73;;
19985;SDS011;10154;52.474;10.768;2022-10-31T08:57:43;45.47;;;20.10;;
19985;SDS011;10154;52.474;10.768;2022-10-31T09:00:09;39.40;;;17.60;;
19985;SDS011;10154;52.474;10.768;2022-10-31T09:02:35;56.30;;;22.83;;
19985;SDS011;10154;52.474;10.768;2022-10-31T09:05:02;47.57;;;19.87;;
19985;SDS011;10154;52.474;10.768;2022-10-31T09:07:27;47.07;;;20.90;;
19985;SDS011;10154;52.474;10.768;2022-10-31T09:09:52;47.37;;;21.87;;
19985;SDS011;10154;52.474;10.768;2022-10-31T09:12:18;55.73;;;23.70;;
19985;SDS011;10154;52.474;10.768;2022-10-31T09:14:43;48.27;;;21.57;;
19985;SDS011;10154;52.474;10.768;2022-10-31T09:17:09;54.70;;;24.03;;
19985;SDS011;10154;52.474;10.768;2022-10-31T09:19:34;55.47;;;23.17;;
19985;SDS011;10154;52.474;10.768;2022-10-31T09:22:00;38.20;;;19.70;;
19985;SDS011;10154;52.474;10.768;2022-10-31T09:24:26;55.30;;;22.37;;
19985;SDS011;10154;52.474;10.768;2022-10-31T09:26:51;48.93;;;22.43;;
19985;SDS011;10154;52.474;10.768;2022-10-31T09:29:16;30.23;;;14.40;;
19985;SDS011;10154;52.474;10.768;2022-10-31T09:31:42;41.23;;;18.67;;
19985;SDS011;10154;52.474;10.768;2022-10-31T09:34:07;52.37;;;22.63;;
19985;SDS011;10154;52.474;10.768;2022-10-31T09:36:32;34.40;;;18.17;;
19985;SDS011;10154;52.474;10.768;2022-10-31T09:38:58;53.47;;;20.80;;
19985;SDS011;10154;52.474;10.768;2022-10-31T09:47:14;49.00;;;20.70;;
19985;SDS011;10154;52.474;10.768;2022-10-31T09:52:34;50.17;;;21.53;;
19985;SDS011;10154;52.474;10.768;2022-10-31T09:55:42;52.27;;;21.23;;
19985;SDS011;10154;52.474;10.768;2022-10-31T09:58:16;45.27;;;20.43;;
19985;SDS011;10154;52.474;10.768;2022-10-31T10:00:44;40.73;;;17.97;;
19985;SDS011;10154;52.474;10.768;2022-10-31T10:05:59;50.27;;;21.00;;
19985;SDS011;10154;52.474;10.768;2022-10-31T10:08:30;48.63;;;21.10;;
19985;SDS011;10154;52.474;10.768;2022-10-31T10:19:16;42.42;;;19.85;;
19985;SDS011;10154;52.474;10.768;2022-10-31T10:21:59;47.47;;;18.85;;
19985;SDS011;10154;52.474;10.768;2022-10-31T10:24:40;33.50;;;16.23;;
19985;SDS011;10154;52.474;10.768;2022-10-31T10:27:16;36.25;;;16.85;;
19985;SDS011;10154;52.474;10.768;2022-10-31T10:32:59;45.70;;;19.55;;
19985;SDS011;10154;52.474;10.768;2022-10-31T10:35:32;32.47;;;15.73;;
19985;SDS011;10154;52.474;10.768;2022-10-31T10:38:10;25.40;;;14.02;;
19985;SDS011;10154;52.474;10.768;2022-10-31T10:40:42;32.72;;;14.95;;
19985;SDS011;10154;52.474;10.768;2022-10-31T10:43:21;37.35;;;16.58;;
19985;SDS011;10154;52.474;10.768;2022-10-31T10:45:52;34.90;;;15.50;;
19985;SDS011;10154;52.474;10.768;2022-10-31T10:51:10;27.88;;;14.00;;
19985;SDS011;10154;52.474;10.768;2022-10-31T10:53:46;37.33;;;16.70;;
19985;SDS011;10154;52.474;10.768;2022-10-31T10:59:02;28.25;;;14.32;;
19985;SDS011;10154;52.474;10.768;2022-10-31T11:01:28;30.23;;;15.65;;
19985;SDS011;10154;52.474;10.768;2022-10-31T11:03:53;33.78;;;15.38;;
19985;SDS011;10154;52.474;10.768;2022-10-31T11:06:22;29.35;;;13.75;;
19985;SDS011;10154;52.474;10.768;2022-10-31T11:08:50;34.58;;;15.48;;
19985;SDS011;10154;52.474;10.768;2022-10-31T11:13:42;30.83;;;14.13;;
19985;SDS011;10154;52.474;10.768;2022-10-31T11:16:10;30.50;;;14.63;;
19985;SDS011;10154;52.474;10.768;2022-10-31T11:18:52;25.63;;;14.63;;
19985;SDS011;10154;52.474;10.768;2022-10-31T11:24:22;27.42;;;14.23;;
19985;SDS011;10154;52.474;10.768;2022-10-31T11:26:51;31.75;;;15.20;;
19985;SDS011;10154;52.474;10.768;2022-10-31T11:31:50;25.50;;;12.38;;
19985;SDS011;10154;52.474;10.768;2022-10-31T11:45:31;32.25;;;14.30;;
19985;SDS011;10154;52.474;10.768;2022-10-31T11:47:58;32.03;;;16.92;;
19985;SDS011;10154;52.474;10.768;2022-10-31T11:50:47;28.73;;;13.07;;
19985;SDS011;10154;52.474;10.768;2022-10-31T11:53:58;26.58;;;12.82;;
19985;SDS011;10154;52.474;10.768;2022-10-31T11:56:24;33.88;;;14.88;;
19985;SDS011;10154;52.474;10.768;2022-10-31T11:58:56;29.05;;;14.13;;
19985;SDS011;10154;52.474;10.768;2022-10-31T12:01:24;30.95;;;14.60;;
19985;SDS011;10154;52.474;10.768;2022-10-31T12:03:58;25.75;;;12.90;;
19985;SDS011;10154;52.474;10.768;2022-10-31T12:06:28;25.77;;;12.55;;
19985;SDS011;10154;52.474;10.768;2022-10-31T12:08:57;24.13;;;11.57;;
19985;SDS011;10154;52.474;10.768;2022-10-31T12:11:31;32.72;;;14.07;;
19985;SDS011;10154;52.474;10.768;2022-10-31T12:17:19;29.75;;;12.55;;
19985;SDS011;10154;52.474;10.768;2022-10-31T12:30:36;24.20;;;12.15;;
19985;SDS011;10154;52.474;10.768;2022-10-31T12:35:58;22.88;;;11.65;;
19985;SDS011;10154;52.474;10.768;2022-10-31T12:41:17;31.77;;;13.77;;
19985;SDS011;10154;52.474;10.768;2022-10-31T12:43:56;30.67;;;13.68;;
19985;SDS011;10154;52.474;10.768;2022-10-31T13:17:22;33.13;;;12.00;;
19985;SDS011;10154;52.474;10.768;2022-10-31T13:19:49;28.40;;;12.57;;
19985;SDS011;10154;52.474;10.768;2022-10-31T13:22:22;34.63;;;13.00;;
19985;SDS011;10154;52.474;10.768;2022-10-31T13:27:48;32.97;;;12.43;;
19985;SDS011;10154;52.474;10.768;2022-10-31T13:30:27;28.40;;;12.33;;
19985;SDS011;10154;52.474;10.768;2022-10-31T13:32:58;26.40;;;10.43;;
19985;SDS011;10154;52.474;10.768;2022-10-31T13:35:35;25.17;;;10.23;;
19985;SDS011;10154;52.474;10.768;2022-10-31T13:38:11;23.03;;;11.00;;
19985;SDS011;10154;52.474;10.768;2022-10-31T13:40:52;23.30;;;9.97;;
19985;SDS011;10154;52.474;10.768;2022-10-31T13:45:54;22.17;;;10.73;;
19985;SDS011;10154;52.474;10.768;2022-10-31T13:51:02;29.03;;;12.30;;
19985;SDS011;10154;52.474;10.768;2022-10-31T13:53:42;32.97;;;12.60;;
19985;SDS011;10154;52.474;10.768;2022-10-31T13:56:22;28.40;;;11.07;;
19985;SDS011;10154;52.474;10.768;2022-10-31T14:01:27;25.53;;;11.43;;
19985;SDS011;10154;52.474;10.768;2022-10-31T14:03:56;27.97;;;11.97;;
19985;SDS011;10154;52.474;10.768;2022-10-31T14:06:39;26.80;;;10.63;;
19985;SDS011;10154;52.474;10.768;2022-10-31T14:14:54;25.80;;;11.85;;
19985;SDS011;10154;52.474;10.768;2022-10-31T14:17:23;26.83;;;11.10;;
19985;SDS011;10154;52.474;10.768;2022-10-31T14:22:35;36.43;;;14.33;;
19985;SDS011;10154;52.474;10.768;2022-10-31T14:25:23;30.77;;;13.57;;
19985;SDS011;10154;52.474;10.768;2022-10-31T14:28:01;32.33;;;13.73;;
19985;SDS011;10154;52.474;10.768;2022-10-31T14:30:28;35.73;;;14.40;;
19985;SDS011;10154;52.474;10.768;2022-10-31T14:32:56;34.27;;;13.87;;
19985;SDS011;10154;52.474;10.768;2022-10-31T14:35:25;32.30;;;13.83;;
19985;SDS011;10154;52.474;10.768;2022-10-31T14:38:09;36.50;;;13.13;;
19985;SDS011;10154;52.474;10.768;2022-10-31T14:43:36;35.07;;;12.50;;
19985;SDS011;10154;52.474;10.768;2022-10-31T14:51:47;32.17;;;12.00;;
19985;SDS011;10154;52.474;10.768;2022-10-31T14:54:32;32.13;;;11.90;;
19985;SDS011;10154;52.474;10.768;2022-10-31T14:57:02;27.67;;;12.37;;
19985;SDS011;10154;52.474;10.768;2022-10-31T14:59:30;29.27;;;11.93;;
19985;SDS011;10154;52.474;10.768;2022-10-31T15:02:06;27.90;;;11.40;;
19985;SDS011;10154;52.474;10.768;2022-10-31T15:04:34;31.17;;;12.37;;
19985;SDS011;10154;52.474;10.768;2022-10-31T15:09:41;33.60;;;11.93;;
19985;SDS011;10154;52.474;10.768;2022-10-31T15:12:43;27.47;;;11.33;;
19985;SDS011;10154;52.474;10.768;2022-10-31T15:15:11;28.23;;;11.27;;
19985;SDS011;10154;52.474;10.768;2022-10-31T15:17:41;27.43;;;11.20;;
19985;SDS011;10154;52.474;10.768;2022-10-31T15:20:12;26.47;;;11.80;;
19985;SDS011;10154;52.474;10.768;2022-10-31T15:22:44;25.93;;;10.97;;
19985;SDS011;10154;52.474;10.768;2022-10-31T15:25:14;24.90;;;10.37;;
19985;SDS011;10154;52.474;10.768;2022-10-31T15:27:42;30.50;;;11.00;;
19985;SDS011;10154;52.474;10.768;2022-10-31T15:30:21;30.97;;;11.23;;
19985;SDS011;10154;52.474;10.768;2022-10-31T15:32:48;26.20;;;11.37;;
19985;SDS011;10154;52.474;10.768;2022-10-31T15:35:23;29.53;;;11.20;;
19985;SDS011;10154;52.474;10.768;2022-10-31T15:37:54;29.63;;;11.80;;
19985;SDS011;10154;52.474;10.768;2022-10-31T15:40:21;28.80;;;11.13;;
19985;SDS011;10154;52.474;10.768;2022-10-31T15:43:02;27.70;;;11.30;;
19985;SDS011;10154;52.474;10.768;2022-10-31T15:45:29;26.63;;;11.53;;
19985;SDS011;10154;52.474;10.768;2022-10-31T15:47:57;29.50;;;12.73;;
19985;SDS011;10154;52.474;10.768;2022-10-31T15:50:28;33.73;;;11.77;;
19985;SDS011;10154;52.474;10.768;2022-10-31T15:52:56;32.30;;;13.10;;
19985;SDS011;10154;52.474;10.768;2022-10-31T15:55:26;27.83;;;11.53;;
19985;SDS011;10154;52.474;10.768;2022-10-31T15:57:54;33.37;;;12.50;;
19985;SDS011;10154;52.474;10.768;2022-10-31T16:00:25;29.23;;;12.40;;
19985;SDS011;10154;52.474;10.768;2022-10-31T16:03:05;28.83;;;13.13;;
19985;SDS011;10154;52.474;10.768;2022-10-31T16:05:39;31.20;;;13.37;;
19985;SDS011;10154;52.474;10.768;2022-10-31T16:10:56;33.67;;;14.63;;
19985;SDS011;10154;52.474;10.768;2022-10-31T16:13:31;34.90;;;14.30;;
19985;SDS011;10154;52.474;10.768;2022-10-31T16:15:59;31.17;;;13.80;;
19985;SDS011;10154;52.474;10.768;2022-10-31T16:18:26;37.80;;;15.37;;
19985;SDS011;10154;52.474;10.768;2022-10-31T16:20:53;39.07;;;16.17;;
19985;SDS011;10154;52.474;10.768;2022-10-31T16:23:21;43.63;;;16.43;;
19985;SDS011;10154;52.474;10.768;2022-10-31T16:25:49;38.73;;;16.83;;
19985;SDS011;10154;52.474;10.768;2022-10-31T16:28:20;37.73;;;15.73;;
19985;SDS011;10154;52.474;10.768;2022-10-31T16:30:55;39.17;;;16.93;;
19985;SDS011;10154;52.474;10.768;2022-10-31T16:35:53;44.13;;;17.43;;
19985;SDS011;10154;52.474;10.768;2022-10-31T16:38:19;42.20;;;17.40;;
19985;SDS011;10154;52.474;10.768;2022-10-31T16:40:45;39.23;;;17.67;;
19985;SDS011;10154;52.474;10.768;2022-10-31T16:43:11;38.47;;;16.90;;
19985;SDS011;10154;52.474;10.768;2022-10-31T16:45:37;42.43;;;18.93;;
19985;SDS011;10154;52.474;10.768;2022-10-31T16:48:14;36.50;;;16.53;;
19985;SDS011;10154;52.474;10.768;2022-10-31T16:50:41;43.93;;;18.50;;
19985;SDS011;10154;52.474;10.768;2022-10-31T16:53:08;39.73;;;17.00;;
19985;SDS011;10154;52.474;10.768;2022-10-31T16:55:34;44.30;;;18.33;;
19985;SDS011;10154;52.474;10.768;2022-10-31T16:58:00;45.43;;;18.43;;
19985;SDS011;10154;52.474;10.768;2022-10-31T17:00:26;36.87;;;16.93;;
19985;SDS011;10154;52.474;10.768;2022-10-31T17:02:52;41.80;;;18.30;;
19985;SDS011;10154;52.474;10.768;2022-10-31T17:05:20;42.47;;;17.53;;